Time;durP1;ratioP1;P1;durP2;ratioP2;P2;SDS_P1;SDS_P2;PMS_P1;PMS_P2;Temp;Humidity;BMP_temperature;BMP_pressure;BME280_temperature;BME280_humidity;BME280_pressure;Samples;Min_cycle;Max_cycle;Signal;HPM_P1;HPM_P2
2022/02/23 00:01:08;;;;;;;0.40;0.40;;;;;;;;;;4972459;28;20269;-61
2022/02/23 00:03:34;;;;;;;0.50;0.50;;;;;;;;;;4974760;28;20214;-62
2022/02/23 00:06:00;;;;;;;0.50;0.50;;;;;;;;;;4976585;28;20227;-62
2022/02/23 00:08:26;;;;;;;0.50;0.50;;;;;;;;;;4976521;28;20488;-61
2022/02/23 00:10:52;;;;;;;0.50;0.50;;;;;;;;;;4976148;28;20650;-62
2022/02/23 00:13:18;;;;;;;0.47;0.47;;;;;;;;;;4975107;28;20426;-62
2022/02/23 00:15:44;;;;;;;0.50;0.50;;;;;;;;;;4975716;28;20210;-62
2022/02/23 00:18:17;;;;;;;0.50;0.50;;;;;;;;;;4976054;28;20914;-62
2022/02/23 00:20:43;;;;;;;0.43;0.43;;;;;;;;;;4976439;28;20678;-62
2022/02/23 00:23:09;;;;;;;0.50;0.50;;;;;;;;;;4976312;28;20186;-62
2022/02/23 00:25:35;;;;;;;0.50;0.50;;;;;;;;;;4976105;28;20198;-62
2022/02/23 00:28:01;;;;;;;0.50;0.50;;;;;;;;;;4976140;28;20403;-62
2022/02/23 00:30:27;;;;;;;0.50;0.50;;;;;;;;;;4976078;28;20186;-61
2022/02/23 00:32:55;;;;;;;0.50;0.50;;;;;;;;;;4976065;28;20293;-62
2022/02/23 00:35:21;;;;;;;0.40;0.40;;;;;;;;;;4974732;28;20233;-62
2022/02/23 00:37:47;;;;;;;0.50;0.50;;;;;;;;;;4975959;28;20589;-61
2022/02/23 00:40:13;;;;;;;0.50;0.50;;;;;;;;;;4975582;28;20643;-62
2022/02/23 00:42:39;;;;;;;0.43;0.43;;;;;;;;;;4975758;28;20226;-62
2022/02/23 00:45:05;;;;;;;0.40;0.40;;;;;;;;;;4975842;28;20677;-62
2022/02/23 00:47:31;;;;;;;0.40;0.40;;;;;;;;;;4976024;28;20944;-60
2022/02/23 00:49:58;;;;;;;0.40;0.40;;;;;;;;;;4975669;28;20222;-62
2022/02/23 00:52:24;;;;;;;0.40;0.40;;;;;;;;;;4975624;28;20186;-62
2022/02/23 00:54:50;;;;;;;0.50;0.50;;;;;;;;;;4975714;28;20210;-62
2022/02/23 00:57:16;;;;;;;0.40;0.40;;;;;;;;;;4975538;28;20533;-62
2022/02/23 00:59:44;;;;;;;0.50;0.50;;;;;;;;;;4975712;28;20213;-62
2022/02/23 01:02:10;;;;;;;0.40;0.40;;;;;;;;;;4975452;28;20176;-62
2022/02/23 01:04:36;;;;;;;0.50;0.50;;;;;;;;;;4975545;28;20179;-62
2022/02/23 01:07:02;;;;;;;0.50;0.50;;;;;;;;;;4975388;28;20222;-62
2022/02/23 01:09:28;;;;;;;0.50;0.50;;;;;;;;;;4975347;28;20465;-62
2022/02/23 01:11:54;;;;;;;0.50;0.50;;;;;;;;;;4975129;28;20818;-62
2022/02/23 01:14:20;;;;;;;0.50;0.50;;;;;;;;;;4974532;28;21000;-62
2022/02/23 01:16:46;;;;;;;0.40;0.40;;;;;;;;;;4975317;28;20774;-62
2022/02/23 01:19:12;;;;;;;0.40;0.40;;;;;;;;;;4975279;28;20918;-62
2022/02/23 01:21:38;;;;;;;0.50;0.50;;;;;;;;;;4974964;28;20916;-62
2022/02/23 01:24:04;;;;;;;0.50;0.50;;;;;;;;;;4974910;28;20457;-63
2022/02/23 01:26:30;;;;;;;0.50;0.50;;;;;;;;;;4975029;28;20661;-61
2022/02/23 01:28:56;;;;;;;0.47;0.47;;;;;;;;;;4975033;28;20178;-63
2022/02/23 01:31:22;;;;;;;0.40;0.40;;;;;;;;;;4974802;28;20403;-62
2022/02/23 01:33:48;;;;;;;0.50;0.50;;;;;;;;;;4975039;28;20409;-62
2022/02/23 01:36:14;;;;;;;0.60;0.60;;;;;;;;;;4974889;28;20214;-62
2022/02/23 01:38:40;;;;;;;0.47;0.47;;;;;;;;;;4974958;28;20406;-62
2022/02/23 01:41:06;;;;;;;0.50;0.50;;;;;;;;;;4974543;28;20414;-62
2022/02/23 01:43:32;;;;;;;0.50;0.50;;;;;;;;;;4974856;28;20421;-62
2022/02/23 01:45:58;;;;;;;0.40;0.40;;;;;;;;;;4974732;28;20441;-62
2022/02/23 01:48:24;;;;;;;0.40;0.40;;;;;;;;;;4974732;28;20258;-63
2022/02/23 01:50:50;;;;;;;0.50;0.50;;;;;;;;;;4974503;28;20179;-62
2022/02/23 01:53:19;;;;;;;0.50;0.50;;;;;;;;;;4974796;28;20175;-62
2022/02/23 01:55:45;;;;;;;0.50;0.50;;;;;;;;;;4974237;28;20223;-62
2022/02/23 01:58:11;;;;;;;0.50;0.50;;;;;;;;;;4974602;28;20179;-62
2022/02/23 02:00:37;;;;;;;0.50;0.50;;;;;;;;;;4974330;28;20508;-62
2022/02/23 02:03:04;;;;;;;0.50;0.50;;;;;;;;;;4974498;28;20185;-62
2022/02/23 02:05:29;;;;;;;0.50;0.50;;;;;;;;;;4973968;28;20173;-63
2022/02/23 02:07:55;;;;;;;0.40;0.40;;;;;;;;;;4974547;28;20189;-61
2022/02/23 02:10:21;;;;;;;0.50;0.50;;;;;;;;;;4974277;28;20413;-62
2022/02/23 02:12:47;;;;;;;0.50;0.50;;;;;;;;;;4974436;28;20906;-62
2022/02/23 02:15:13;;;;;;;0.50;0.50;;;;;;;;;;4974082;28;20469;-62
2022/02/23 02:17:41;;;;;;;0.50;0.50;;;;;;;;;;4974278;28;20493;-62
2022/02/23 02:20:07;;;;;;;0.50;0.50;;;;;;;;;;4974038;28;20178;-62
2022/02/23 02:22:33;;;;;;;0.50;0.50;;;;;;;;;;4974599;28;20605;-62
2022/02/23 02:25:02;;;;;;;0.50;0.50;;;;;;;;;;4974336;28;20178;-62
2022/02/23 02:27:28;;;;;;;0.50;0.50;;;;;;;;;;4972915;28;20429;-62
2022/02/23 02:29:54;;;;;;;0.50;0.50;;;;;;;;;;4975086;28;20260;-61
2022/02/23 02:32:20;;;;;;;0.60;0.60;;;;;;;;;;4974021;28;20648;-61
2022/02/23 02:34:46;;;;;;;0.50;0.50;;;;;;;;;;4974094;28;20205;-62
2022/02/23 02:37:13;;;;;;;0.50;0.50;;;;;;;;;;4974394;28;20253;-61
2022/02/23 02:39:39;;;;;;;0.50;0.50;;;;;;;;;;4973854;28;20184;-62
2022/02/23 02:42:05;;;;;;;0.50;0.50;;;;;;;;;;4973595;28;20179;-62
2022/02/23 02:44:31;;;;;;;0.50;0.50;;;;;;;;;;4973892;28;20768;-61
2022/02/23 02:46:57;;;;;;;0.50;0.50;;;;;;;;;;4973602;28;20254;-61
2022/02/23 02:49:23;;;;;;;0.50;0.50;;;;;;;;;;4973650;28;20618;-62
2022/02/23 02:51:49;;;;;;;0.50;0.50;;;;;;;;;;4973449;28;20265;-62
2022/02/23 02:54:15;;;;;;;0.40;0.40;;;;;;;;;;4973656;28;20464;-62
2022/02/23 02:56:42;;;;;;;0.50;0.50;;;;;;;;;;5035061;23;20714;-62
2022/02/23 02:59:08;;;;;;;0.50;0.50;;;;;;;;;;5033266;28;20184;-62
2022/02/23 03:01:35;;;;;;;0.40;0.40;;;;;;;;;;5031998;28;20181;-62
2022/02/23 03:04:01;;;;;;;0.40;0.40;;;;;;;;;;5032156;28;20174;-62
2022/02/23 03:06:27;;;;;;;0.50;0.50;;;;;;;;;;5031970;28;20206;-62
2022/02/23 03:08:54;;;;;;;0.50;0.50;;;;;;;;;;5032160;28;20710;-62
2022/02/23 03:11:21;;;;;;;0.50;0.50;;;;;;;;;;5031745;28;20221;-61
2022/02/23 03:13:47;;;;;;;0.43;0.43;;;;;;;;;;5032084;28;20252;-62
2022/02/23 03:16:14;;;;;;;0.43;0.43;;;;;;;;;;5031791;28;20219;-62
2022/02/23 03:18:40;;;;;;;0.40;0.40;;;;;;;;;;5031835;28;20169;-62
2022/02/23 03:21:06;;;;;;;0.50;0.50;;;;;;;;;;5031881;28;20178;-62
2022/02/23 03:23:32;;;;;;;0.50;0.50;;;;;;;;;;5031870;28;20810;-62
2022/02/23 03:25:58;;;;;;;0.50;0.50;;;;;;;;;;5031748;28;20452;-62
2022/02/23 03:28:24;;;;;;;0.50;0.50;;;;;;;;;;5031838;28;20180;-62
2022/02/23 03:30:50;;;;;;;0.50;0.50;;;;;;;;;;5031522;28;20187;-62
2022/02/23 03:33:17;;;;;;;0.50;0.50;;;;;;;;;;5031622;28;20226;-62
2022/02/23 03:35:44;;;;;;;0.45;0.45;;;;;;;;;;5014029;28;20740;-62
2022/02/23 03:38:10;;;;;;;0.57;0.57;;;;;;;;;;5031230;28;20175;-62
2022/02/23 03:40:36;;;;;;;0.50;0.50;;;;;;;;;;5031341;28;20255;-62
2022/02/23 03:43:03;;;;;;;0.50;0.50;;;;;;;;;;5031650;28;20184;-62
2022/02/23 03:45:29;;;;;;;0.50;0.50;;;;;;;;;;5031661;28;20610;-62
2022/02/23 03:47:55;;;;;;;0.57;0.57;;;;;;;;;;5031279;28;20203;-62
2022/02/23 03:50:21;;;;;;;0.50;0.50;;;;;;;;;;5031364;28;20752;-62
2022/02/23 03:52:47;;;;;;;0.60;0.60;;;;;;;;;;5031445;28;20182;-61
2022/02/23 03:55:13;;;;;;;0.50;0.50;;;;;;;;;;5031358;28;20680;-62
2022/02/23 03:57:39;;;;;;;0.50;0.50;;;;;;;;;;5031274;28;20214;-62
2022/02/23 04:00:07;;;;;;;0.50;0.50;;;;;;;;;;5031211;28;20217;-62
2022/02/23 04:02:34;;;;;;;0.50;0.50;;;;;;;;;;5031312;28;20436;-62
2022/02/23 04:05:00;;;;;;;0.50;0.50;;;;;;;;;;5031345;28;20188;-62
2022/02/23 04:07:27;;;;;;;0.50;0.50;;;;;;;;;;5031470;28;20210;-61
2022/02/23 04:09:53;;;;;;;0.50;0.50;;;;;;;;;;5031383;28;20182;-62
2022/02/23 04:12:19;;;;;;;0.50;0.50;;;;;;;;;;5031107;28;20828;-61
2022/02/23 04:14:46;;;;;;;0.50;0.50;;;;;;;;;;5030968;28;20205;-62
2022/02/23 04:17:12;;;;;;;0.50;0.50;;;;;;;;;;5031115;28;20218;-61
2022/02/23 04:19:38;;;;;;;0.50;0.50;;;;;;;;;;5031150;28;20186;-62
2022/02/23 04:22:05;;;;;;;0.40;0.40;;;;;;;;;;5031006;28;20228;-62
2022/02/23 04:24:31;;;;;;;0.50;0.50;;;;;;;;;;5031220;28;20175;-62
2022/02/23 04:26:57;;;;;;;0.40;0.40;;;;;;;;;;5031091;28;20194;-62
2022/02/23 04:29:23;;;;;;;0.40;0.40;;;;;;;;;;5031194;28;20185;-62
2022/02/23 04:31:49;;;;;;;0.50;0.50;;;;;;;;;;5030836;28;20315;-61
2022/02/23 04:34:15;;;;;;;0.50;0.50;;;;;;;;;;5031101;28;20517;-61
2022/02/23 04:36:41;;;;;;;0.50;0.50;;;;;;;;;;5031213;28;20204;-62
2022/02/23 04:39:08;;;;;;;0.50;0.50;;;;;;;;;;5030932;28;20421;-60
2022/02/23 04:41:34;;;;;;;0.50;0.50;;;;;;;;;;5030919;28;20180;-61
2022/02/23 04:44:00;;;;;;;0.40;0.40;;;;;;;;;;5031076;28;20184;-62
2022/02/23 04:46:26;;;;;;;0.50;0.50;;;;;;;;;;5030950;28;20200;-61
2022/02/23 04:48:52;;;;;;;0.50;0.50;;;;;;;;;;5013391;28;20419;-61
2022/02/23 04:51:19;;;;;;;0.50;0.50;;;;;;;;;;5033830;28;20213;-61
2022/02/23 04:53:46;;;;;;;0.50;0.50;;;;;;;;;;5034761;28;20196;-62
2022/02/23 04:56:12;;;;;;;0.50;0.50;;;;;;;;;;5034750;28;20222;-61
2022/02/23 04:58:38;;;;;;;0.50;0.50;;;;;;;;;;5034788;28;20260;-61
2022/02/23 05:01:05;;;;;;;0.50;0.50;;;;;;;;;;5034371;28;20187;-62
2022/02/23 05:03:31;;;;;;;0.45;0.45;;;;;;;;;;5034322;28;20167;-62
2022/02/23 05:05:59;;;;;;;0.50;0.50;;;;;;;;;;5034360;28;20187;-61
2022/02/23 05:08:25;;;;;;;0.50;0.50;;;;;;;;;;5034425;28;20167;-62
2022/02/23 05:10:51;;;;;;;0.50;0.50;;;;;;;;;;5034153;28;20182;-62
2022/02/23 05:13:17;;;;;;;0.50;0.50;;;;;;;;;;5034374;28;20180;-62
2022/02/23 05:15:43;;;;;;;0.50;0.50;;;;;;;;;;5034438;28;20469;-62
2022/02/23 05:18:09;;;;;;;0.50;0.50;;;;;;;;;;5034532;28;20175;-62
2022/02/23 05:20:35;;;;;;;0.50;0.50;;;;;;;;;;5034184;28;20482;-62
2022/02/23 05:23:02;;;;;;;0.50;0.50;;;;;;;;;;5034570;28;20696;-62
2022/02/23 05:25:28;;;;;;;0.50;0.50;;;;;;;;;;5034436;28;20218;-61
2022/02/23 05:27:54;;;;;;;0.50;0.50;;;;;;;;;;5034187;28;20287;-61
2022/02/23 05:30:20;;;;;;;0.50;0.50;;;;;;;;;;5033777;28;20614;-62
2022/02/23 05:32:47;;;;;;;0.43;0.43;;;;;;;;;;5033833;28;20558;-62
2022/02/23 05:35:13;;;;;;;0.50;0.50;;;;;;;;;;5034007;28;20209;-62
2022/02/23 05:37:39;;;;;;;0.50;0.50;;;;;;;;;;5033851;28;20194;-62
2022/02/23 05:40:06;;;;;;;0.50;0.50;;;;;;;;;;5032567;28;20414;-61
2022/02/23 05:42:32;;;;;;;0.50;0.50;;;;;;;;;;5033062;28;20229;-61
2022/02/23 05:44:58;;;;;;;0.60;0.60;;;;;;;;;;5033505;28;20188;-62
2022/02/23 05:47:24;;;;;;;0.50;0.50;;;;;;;;;;5033509;28;21124;-62
2022/02/23 05:49:50;;;;;;;0.50;0.50;;;;;;;;;;5033399;28;20179;-61
2022/02/23 05:52:19;;;;;;;0.60;0.60;;;;;;;;;;5033292;28;20412;-62
2022/02/23 05:54:45;;;;;;;0.60;0.60;;;;;;;;;;5033470;28;20324;-61
2022/02/23 05:57:12;;;;;;;0.60;0.60;;;;;;;;;;5033092;28;20312;-62
2022/02/23 05:59:38;;;;;;;0.70;0.70;;;;;;;;;;5033313;28;20538;-62
2022/02/23 06:02:04;;;;;;;0.60;0.60;;;;;;;;;;5032906;28;20171;-62
2022/02/23 06:04:30;;;;;;;0.50;0.50;;;;;;;;;;5033337;28;20173;-61
2022/02/23 06:06:56;;;;;;;0.60;0.60;;;;;;;;;;5033197;28;20542;-62
2022/02/23 06:09:23;;;;;;;0.70;0.70;;;;;;;;;;5033108;28;20178;-62
2022/02/23 06:11:49;;;;;;;0.70;0.70;;;;;;;;;;5032635;28;20170;-62
2022/02/23 06:14:15;;;;;;;0.70;0.70;;;;;;;;;;5032478;28;20182;-62
2022/02/23 06:16:41;;;;;;;0.60;0.60;;;;;;;;;;5032329;28;20631;-61
2022/02/23 06:19:07;;;;;;;0.70;0.70;;;;;;;;;;5032715;28;20181;-61
2022/02/23 06:21:34;;;;;;;0.70;0.70;;;;;;;;;;5031632;28;20201;-62
2022/02/23 06:24:00;;;;;;;0.70;0.70;;;;;;;;;;5043550;28;20408;-61
2022/02/23 06:26:26;;;;;;;0.63;0.63;;;;;;;;;;5037510;28;20690;-62
2022/02/23 06:28:52;;;;;;;0.50;0.50;;;;;;;;;;5032853;28;20893;-62
2022/02/23 06:31:18;;;;;;;0.50;0.50;;;;;;;;;;5032502;28;20631;-62
2022/02/23 06:33:45;;;;;;;0.50;0.50;;;;;;;;;;5032953;28;20182;-62
2022/02/23 06:36:11;;;;;;;0.50;0.50;;;;;;;;;;5031774;28;20585;-61
2022/02/23 06:38:41;;;;;;;0.50;0.50;;;;;;;;;;5032225;28;20182;-62
2022/02/23 06:41:12;;;;;;;0.60;0.60;;;;;;;;;;5032396;28;20227;-62
2022/02/23 06:43:38;;;;;;;0.50;0.50;;;;;;;;;;5032745;28;20205;-62
2022/02/23 06:46:04;;;;;;;0.60;0.60;;;;;;;;;;5032820;28;20206;-62
2022/02/23 06:48:31;;;;;;;0.50;0.50;;;;;;;;;;5032101;28;20175;-62
2022/02/23 06:50:57;;;;;;;0.50;0.50;;;;;;;;;;5032363;28;20559;-62
2022/02/23 06:53:23;;;;;;;0.60;0.60;;;;;;;;;;5032803;28;20183;-61
2022/02/23 06:55:49;;;;;;;0.70;0.70;;;;;;;;;;5032911;28;20452;-63
2022/02/23 06:58:15;;;;;;;0.43;0.43;;;;;;;;;;5032602;28;20785;-61
2022/02/23 07:00:41;;;;;;;0.50;0.50;;;;;;;;;;5030706;28;20519;-61
2022/02/23 07:03:08;;;;;;;0.50;0.50;;;;;;;;;;5031245;28;20190;-61
2022/02/23 07:05:34;;;;;;;0.50;0.50;;;;;;;;;;5031032;28;20184;-59
2022/02/23 07:08:03;;;;;;;0.60;0.60;;;;;;;;;;5030090;28;20191;-62
2022/02/23 07:10:30;;;;;;;0.47;0.47;;;;;;;;;;5031776;28;20180;-62
2022/02/23 07:12:56;;;;;;;0.50;0.50;;;;;;;;;;5029693;28;20178;-62
2022/02/23 07:15:23;;;;;;;0.50;0.50;;;;;;;;;;5031749;28;20653;-62
2022/02/23 07:17:49;;;;;;;0.50;0.50;;;;;;;;;;5031946;28;20194;-62
2022/02/23 07:20:16;;;;;;;0.60;0.60;;;;;;;;;;5031841;28;20715;-61
2022/02/23 07:22:42;;;;;;;0.50;0.50;;;;;;;;;;5032006;28;20547;-61
2022/02/23 07:25:09;;;;;;;0.40;0.40;;;;;;;;;;5032018;28;20186;-61
2022/02/23 07:27:35;;;;;;;0.50;0.50;;;;;;;;;;5031725;28;20523;-62
2022/02/23 07:30:02;;;;;;;0.50;0.50;;;;;;;;;;5031737;28;20544;-62
2022/02/23 07:32:32;;;;;;;0.50;0.50;;;;;;;;;;5031609;28;20181;-61
2022/02/23 07:34:59;;;;;;;0.50;0.50;;;;;;;;;;5031708;28;20189;-61
2022/02/23 07:37:25;;;;;;;0.50;0.50;;;;;;;;;;5031768;28;20278;-61
2022/02/23 07:39:56;;;;;;;0.50;0.50;;;;;;;;;;5031646;28;20177;-61
2022/02/23 07:42:22;;;;;;;0.50;0.50;;;;;;;;;;5031398;28;20645;-61
2022/02/23 07:44:48;;;;;;;0.40;0.40;;;;;;;;;;5031642;28;20213;-61
2022/02/23 07:47:14;;;;;;;0.57;0.57;;;;;;;;;;5031378;28;20429;-61
2022/02/23 07:49:40;;;;;;;0.50;0.50;;;;;;;;;;5031500;28;20196;-61
2022/02/23 07:52:06;;;;;;;0.50;0.50;;;;;;;;;;5031412;28;20182;-61
2022/02/23 07:54:33;;;;;;;0.60;0.60;;;;;;;;;;5031481;28;20194;-61
2022/02/23 07:56:59;;;;;;;0.50;0.50;;;;;;;;;;5031268;28;20208;-64
2022/02/23 07:59:25;;;;;;;0.50;0.50;;;;;;;;;;5031596;28;20182;-61
2022/02/23 08:01:51;;;;;;;0.50;0.50;;;;;;;;;;5031215;28;20172;-61
2022/02/23 08:04:20;;;;;;;0.50;0.50;;;;;;;;;;5029833;28;20170;-61
2022/02/23 08:06:46;;;;;;;0.50;0.50;;;;;;;;;;5031245;28;20221;-61
2022/02/23 08:09:12;;;;;;;0.50;0.50;;;;;;;;;;5030989;28;20253;-61
2022/02/23 08:11:39;;;;;;;0.50;0.50;;;;;;;;;;5031332;28;20477;-61
2022/02/23 08:14:05;;;;;;;0.50;0.50;;;;;;;;;;5031789;28;20180;-63
2022/02/23 08:19:34;;;;;;;0.50;0.50;;;;;;;;;;5031863;28;20190;-61
2022/02/23 08:22:00;;;;;;;0.40;0.40;;;;;;;;;;5030751;28;20164;-61
2022/02/23 08:24:27;;;;;;;0.50;0.50;;;;;;;;;;5033260;28;20251;-61
2022/02/23 08:26:54;;;;;;;0.50;0.50;;;;;;;;;;5035277;28;20445;-63
2022/02/23 08:29:20;;;;;;;0.60;0.60;;;;;;;;;;5035107;28;20168;-61
2022/02/23 08:31:46;;;;;;;0.50;0.50;;;;;;;;;;5034776;28;20172;-61
2022/02/23 08:34:12;;;;;;;0.40;0.40;;;;;;;;;;5034863;28;20410;-62
2022/02/23 08:36:38;;;;;;;0.50;0.50;;;;;;;;;;5034985;28;20434;-62
2022/02/23 08:39:04;;;;;;;0.50;0.50;;;;;;;;;;5035084;28;20172;-62
2022/02/23 08:41:30;;;;;;;0.50;0.50;;;;;;;;;;5034670;28;20399;-62
2022/02/23 08:43:56;;;;;;;0.60;0.60;;;;;;;;;;5034445;28;20176;-62
2022/02/23 08:46:22;;;;;;;0.50;0.50;;;;;;;;;;5033365;28;20532;-62
2022/02/23 08:48:48;;;;;;;0.50;0.50;;;;;;;;;;5034940;28;20411;-62
2022/02/23 08:51:14;;;;;;;0.50;0.50;;;;;;;;;;5035107;28;20415;-62
2022/02/23 08:53:40;;;;;;;0.50;0.50;;;;;;;;;;5035683;28;20748;-62
2022/02/23 08:58:41;;;;;;;0.50;0.50;;;;;;;;;;5030090;23;20499;-63
2022/02/23 09:01:07;;;;;;;0.40;0.40;;;;;;;;;;5014028;28;20181;-63
2022/02/23 09:03:33;;;;;;;0.47;0.47;;;;;;;;;;5014727;28;20459;-63
2022/02/23 09:05:59;;;;;;;0.40;0.40;;;;;;;;;;5013793;28;20421;-63
2022/02/23 09:08:25;;;;;;;0.40;0.40;;;;;;;;;;5014703;28;20423;-63
2022/02/23 09:10:50;;;;;;;0.40;0.40;;;;;;;;;;5014294;28;20420;-63
2022/02/23 09:13:16;;;;;;;0.50;0.50;;;;;;;;;;5014497;28;20411;-64
2022/02/23 09:15:42;;;;;;;0.40;0.40;;;;;;;;;;5014440;28;20463;-64
2022/02/23 09:18:08;;;;;;;0.40;0.40;;;;;;;;;;5014362;28;20989;-64
2022/02/23 09:20:35;;;;;;;0.40;0.40;;;;;;;;;;5014226;28;20465;-64
2022/02/23 09:23:01;;;;;;;0.40;0.40;;;;;;;;;;5014383;28;20379;-64
2022/02/23 09:25:28;;;;;;;0.40;0.40;;;;;;;;;;5014278;28;20402;-64
2022/02/23 09:27:54;;;;;;;0.30;0.30;;;;;;;;;;5004066;28;20463;-64
2022/02/23 09:30:20;;;;;;;0.30;0.30;;;;;;;;;;4994365;28;20410;-64
2022/02/23 09:32:49;;;;;;;0.40;0.40;;;;;;;;;;4994555;28;20440;-64
2022/02/23 09:35:16;;;;;;;0.30;0.30;;;;;;;;;;4993730;28;20457;-63
2022/02/23 09:37:42;;;;;;;0.30;0.30;;;;;;;;;;4993753;28;20433;-62
2022/02/23 09:40:09;;;;;;;0.30;0.30;;;;;;;;;;4994039;28;20829;-61
2022/02/23 09:42:35;;;;;;;0.30;0.30;;;;;;;;;;4993035;28;21095;-64
2022/02/23 09:45:03;;;;;;;0.30;0.30;;;;;;;;;;4994670;28;20416;-64
2022/02/23 09:47:32;;;;;;;0.30;0.30;;;;;;;;;;4994075;28;20979;-63
2022/02/23 09:49:58;;;;;;;0.40;0.40;;;;;;;;;;4993815;28;20384;-63
2022/02/23 09:52:26;;;;;;;0.40;0.40;;;;;;;;;;4994105;28;20412;-63
2022/02/23 09:54:52;;;;;;;0.40;0.40;;;;;;;;;;4994058;28;20453;-63
2022/02/23 09:57:18;;;;;;;0.40;0.40;;;;;;;;;;4994126;28;21054;-64
2022/02/23 09:59:44;;;;;;;0.40;0.40;;;;;;;;;;4993385;28;20405;-63
2022/02/23 10:02:11;;;;;;;0.40;0.40;;;;;;;;;;4993729;28;20997;-64
2022/02/23 10:04:37;;;;;;;0.40;0.40;;;;;;;;;;4993958;28;20444;-64
2022/02/23 10:07:06;;;;;;;0.30;0.30;;;;;;;;;;4994074;28;20438;-63
2022/02/23 10:09:40;;;;;;;0.30;0.30;;;;;;;;;;4994196;28;20821;-64
2022/02/23 10:12:06;;;;;;;0.40;0.40;;;;;;;;;;5007407;28;20415;-62
2022/02/23 10:14:32;;;;;;;0.30;0.30;;;;;;;;;;5013481;28;20431;-64
2022/02/23 10:16:58;;;;;;;0.37;0.37;;;;;;;;;;5013321;28;20953;-64
2022/02/23 10:19:25;;;;;;;0.40;0.40;;;;;;;;;;5013322;28;20397;-64
2022/02/23 10:21:55;;;;;;;0.40;0.40;;;;;;;;;;5012734;28;20393;-64
2022/02/23 10:24:35;;;;;;;0.30;0.30;;;;;;;;;;5012771;28;20433;-64
2022/02/23 10:27:09;;;;;;;0.40;0.40;;;;;;;;;;5013037;28;20443;-61
2022/02/23 10:29:36;;;;;;;0.30;0.30;;;;;;;;;;5013089;28;20415;-62
2022/02/23 10:32:07;;;;;;;0.40;0.40;;;;;;;;;;5012850;28;20526;-64
2022/02/23 10:34:37;;;;;;;0.30;0.30;;;;;;;;;;5012491;28;20465;-64
2022/02/23 10:37:06;;;;;;;0.40;0.40;;;;;;;;;;5012759;28;20425;-64
2022/02/23 10:39:46;;;;;;;0.40;0.40;;;;;;;;;;5013058;28;20488;-64
2022/02/23 10:42:14;;;;;;;0.30;0.30;;;;;;;;;;5011563;28;20428;-64
2022/02/23 10:44:44;;;;;;;0.33;0.33;;;;;;;;;;5012330;28;20409;-64
2022/02/23 10:47:24;;;;;;;0.30;0.30;;;;;;;;;;5012076;28;20437;-64
2022/02/23 10:50:02;;;;;;;0.30;0.30;;;;;;;;;;5012598;28;20415;-64
2022/02/23 10:52:29;;;;;;;0.40;0.40;;;;;;;;;;5012656;28;20411;-64
2022/02/23 10:55:19;;;;;;;0.30;0.30;;;;;;;;;;5012641;28;21001;-64
2022/02/23 10:57:47;;;;;;;0.30;0.30;;;;;;;;;;5012610;28;20542;-64
2022/02/23 11:00:23;;;;;;;0.30;0.30;;;;;;;;;;5012167;28;20466;-61
2022/02/23 11:02:50;;;;;;;0.30;0.30;;;;;;;;;;5012635;28;20409;-62
2022/02/23 11:05:17;;;;;;;0.30;0.30;;;;;;;;;;5012647;28;20425;-62
2022/02/23 11:07:44;;;;;;;0.30;0.30;;;;;;;;;;5011873;28;20407;-62
2022/02/23 11:10:13;;;;;;;0.30;0.30;;;;;;;;;;5012288;28;20413;-62
2022/02/23 11:12:40;;;;;;;0.20;0.20;;;;;;;;;;5012603;28;20979;-62
2022/02/23 11:15:07;;;;;;;0.30;0.30;;;;;;;;;;5011858;28;20440;-62
2022/02/23 11:17:33;;;;;;;0.20;0.20;;;;;;;;;;5012364;28;20488;-62
2022/02/23 11:19:59;;;;;;;0.30;0.30;;;;;;;;;;5012480;28;20402;-62
2022/02/23 11:22:25;;;;;;;0.30;0.30;;;;;;;;;;5012011;28;20406;-62
2022/02/23 11:24:51;;;;;;;0.30;0.30;;;;;;;;;;5012330;28;20399;-62
2022/02/23 11:27:21;;;;;;;0.20;0.20;;;;;;;;;;5012140;28;20424;-62
2022/02/23 11:30:04;;;;;;;0.30;0.30;;;;;;;;;;5012106;28;20417;-62
2022/02/23 11:32:31;;;;;;;0.20;0.20;;;;;;;;;;5011890;28;20413;-62
2022/02/23 11:34:57;;;;;;;0.30;0.30;;;;;;;;;;5012025;28;20463;-62
2022/02/23 11:37:22;;;;;;;0.20;0.20;;;;;;;;;;5012139;28;20423;-62
2022/02/23 11:39:51;;;;;;;0.30;0.30;;;;;;;;;;5012022;28;20409;-62
2022/02/23 11:42:21;;;;;;;0.30;0.30;;;;;;;;;;5011680;28;20546;-62
2022/02/23 11:44:49;;;;;;;0.30;0.30;;;;;;;;;;5011904;28;20424;-62
2022/02/23 11:50:04;;;;;;;0.40;0.40;;;;;;;;;;5012156;28;20486;-61
2022/02/23 11:52:31;;;;;;;0.30;0.30;;;;;;;;;;5011628;28;20772;-62
2022/02/23 11:57:47;;;;;;;0.40;0.40;;;;;;;;;;5011560;28;20443;-62
2022/02/23 12:00:15;;;;;;;0.30;0.30;;;;;;;;;;5017453;28;20386;-62
2022/02/23 12:02:41;;;;;;;0.30;0.30;;;;;;;;;;4997827;28;20975;-62
2022/02/23 12:05:09;;;;;;;0.30;0.30;;;;;;;;;;4998589;28;20409;-62
2022/02/23 12:07:48;;;;;;;0.40;0.40;;;;;;;;;;4998388;28;20444;-62
2022/02/23 12:10:15;;;;;;;0.40;0.40;;;;;;;;;;4998172;28;20496;-62
2022/02/23 12:12:47;;;;;;;0.30;0.30;;;;;;;;;;4998127;28;20528;-62
2022/02/23 12:15:24;;;;;;;0.40;0.40;;;;;;;;;;4998584;28;20820;-62
2022/02/23 12:17:50;;;;;;;0.30;0.30;;;;;;;;;;4998117;28;20476;-62
2022/02/23 12:20:35;;;;;;;0.40;0.40;;;;;;;;;;4998246;28;20379;-62
2022/02/23 12:23:19;;;;;;;0.40;0.40;;;;;;;;;;4998620;28;20412;-62
2022/02/23 12:25:52;;;;;;;0.40;0.40;;;;;;;;;;4998191;28;20405;-62
2022/02/23 12:28:20;;;;;;;0.40;0.40;;;;;;;;;;4997907;28;21017;-62
2022/02/23 12:30:49;;;;;;;0.40;0.40;;;;;;;;;;4998196;28;20456;-62
2022/02/23 12:33:16;;;;;;;0.40;0.40;;;;;;;;;;4998467;28;20384;-62
2022/02/23 12:35:43;;;;;;;0.40;0.40;;;;;;;;;;4998361;28;20468;-62
2022/02/23 12:38:09;;;;;;;0.40;0.40;;;;;;;;;;4998070;28;20785;-62
2022/02/23 12:40:35;;;;;;;0.40;0.40;;;;;;;;;;4997508;28;20405;-62
2022/02/23 12:43:09;;;;;;;0.40;0.40;;;;;;;;;;4998231;28;20376;-62
2022/02/23 12:45:51;;;;;;;0.40;0.40;;;;;;;;;;4998096;28;20496;-62
2022/02/23 12:48:17;;;;;;;0.30;0.30;;;;;;;;;;4998224;28;20478;-62
2022/02/23 12:50:43;;;;;;;0.30;0.30;;;;;;;;;;4997989;28;20414;-62
2022/02/23 12:53:09;;;;;;;0.40;0.40;;;;;;;;;;4998318;28;20400;-62
2022/02/23 12:55:36;;;;;;;0.30;0.30;;;;;;;;;;4998071;28;20496;-62
2022/02/23 12:58:02;;;;;;;0.40;0.40;;;;;;;;;;4998057;28;20980;-62
2022/02/23 13:00:34;;;;;;;0.30;0.30;;;;;;;;;;4998122;28;20412;-62
2022/02/23 13:03:07;;;;;;;0.40;0.40;;;;;;;;;;4998547;28;20420;-64
2022/02/23 13:05:36;;;;;;;0.30;0.30;;;;;;;;;;4998480;28;20413;-64
2022/02/23 13:08:04;;;;;;;0.40;0.40;;;;;;;;;;4998274;28;20486;-64
2022/02/23 13:10:30;;;;;;;0.40;0.40;;;;;;;;;;4995557;28;20416;-64
2022/02/23 13:12:56;;;;;;;0.40;0.40;;;;;;;;;;4994982;28;20413;-64
2022/02/23 13:15:22;;;;;;;0.30;0.30;;;;;;;;;;4994926;28;20548;-64
2022/02/23 13:17:48;;;;;;;0.40;0.40;;;;;;;;;;4994847;28;20425;-64
2022/02/23 13:20:16;;;;;;;0.40;0.40;;;;;;;;;;4994688;28;20412;-64
2022/02/23 13:22:43;;;;;;;0.40;0.40;;;;;;;;;;4994922;28;20409;-64
2022/02/23 13:25:11;;;;;;;0.30;0.30;;;;;;;;;;4995066;28;20406;-64
2022/02/23 13:27:37;;;;;;;0.30;0.30;;;;;;;;;;4994712;28;20429;-63
2022/02/23 13:30:05;;;;;;;0.40;0.40;;;;;;;;;;4994724;28;20412;-64
2022/02/23 13:32:36;;;;;;;0.50;0.50;;;;;;;;;;4994557;28;20413;-63
2022/02/23 13:35:04;;;;;;;0.40;0.40;;;;;;;;;;4994592;28;20461;-63
2022/02/23 13:37:34;;;;;;;0.40;0.40;;;;;;;;;;4994536;28;20453;-63
2022/02/23 13:40:12;;;;;;;0.40;0.40;;;;;;;;;;4994562;28;20443;-63
2022/02/23 13:42:38;;;;;;;0.40;0.40;;;;;;;;;;4994518;28;20481;-63
2022/02/23 13:45:15;;;;;;;0.50;0.50;;;;;;;;;;4994443;28;20182;-64
2022/02/23 13:47:50;;;;;;;0.40;0.40;;;;;;;;;;4994469;28;20515;-64
2022/02/23 13:50:21;;;;;;;0.50;0.50;;;;;;;;;;4992190;28;20178;-64
2022/02/23 13:52:58;;;;;;;0.50;0.50;;;;;;;;;;4994362;28;20407;-64
2022/02/23 13:55:25;;;;;;;0.40;0.40;;;;;;;;;;4994254;28;20986;-63
2022/02/23 13:57:55;;;;;;;0.50;0.50;;;;;;;;;;4993231;28;20218;-63
2022/02/23 14:00:39;;;;;;;0.70;0.70;;;;;;;;;;4993878;28;20413;-64
2022/02/23 14:03:35;;;;;;;0.50;0.50;;;;;;;;;;4993969;28;20472;-64
2022/02/23 14:06:24;;;;;;;0.60;0.60;;;;;;;;;;4981586;28;20428;-64
2022/02/23 14:08:58;;;;;;;0.50;0.50;;;;;;;;;;4993315;28;20420;-64
2022/02/23 14:11:27;;;;;;;0.40;0.40;;;;;;;;;;4992310;28;20431;-64
2022/02/23 14:13:54;;;;;;;0.50;0.50;;;;;;;;;;4994038;28;20170;-64
2022/02/23 14:16:30;;;;;;;0.60;0.60;;;;;;;;;;4993774;28;20470;-64
2022/02/23 14:18:56;;;;;;;0.60;0.60;;;;;;;;;;4993623;28;20779;-64
2022/02/23 14:21:24;;;;;;;0.50;0.50;;;;;;;;;;4992820;28;20500;-64
2022/02/23 14:23:55;;;;;;;0.50;0.50;;;;;;;;;;4993812;28;20411;-64
2022/02/23 14:26:22;;;;;;;0.50;0.50;;;;;;;;;;4993743;28;20435;-64
2022/02/23 14:28:55;;;;;;;0.60;0.60;;;;;;;;;;4993642;28;20735;-64
2022/02/23 14:31:31;;;;;;;0.50;0.50;;;;;;;;;;4993096;28;20415;-64
2022/02/23 14:34:13;;;;;;;0.60;0.60;;;;;;;;;;4993485;28;20496;-64
2022/02/23 14:36:39;;;;;;;0.50;0.50;;;;;;;;;;4993747;28;20210;-63
2022/02/23 14:39:06;;;;;;;0.50;0.50;;;;;;;;;;4991513;28;20186;-64
2022/02/23 14:41:32;;;;;;;0.40;0.40;;;;;;;;;;4993170;28;20257;-64
2022/02/23 14:44:01;;;;;;;0.50;0.50;;;;;;;;;;4993397;28;20189;-63
2022/02/23 14:46:27;;;;;;;0.70;0.70;;;;;;;;;;4993167;28;20184;-62
2022/02/23 14:48:54;;;;;;;0.50;0.50;;;;;;;;;;4993248;28;20993;-64
2022/02/23 14:51:20;;;;;;;0.70;0.70;;;;;;;;;;4993149;28;20416;-64
2022/02/23 14:53:46;;;;;;;0.50;0.50;;;;;;;;;;4993438;28;20180;-64
2022/02/23 14:56:12;;;;;;;0.50;0.50;;;;;;;;;;4992869;28;20506;-63